This is the latest recevied weather packets stored in our database for station/object AC1IX. If no packets are shown the sender has not sent any weather packets the latest 10 day(s).
| Time | Temp. | Humidity | Pressure | Rain* | Wind** | Luminosity | Snow |
|---|---|---|---|---|---|---|---|
| 1778188722 | 12.78° C | 45% | 1008.9 hPa | 0 mm | - | 386 W/m² | - |
| 1778188419 | 12.78° C | 48% | 1008.7 hPa | 0 mm | - | 254 W/m² | - |
| 1778187813 | 12.22° C | 47% | 1008.7 hPa | 0 mm | - | 427 W/m² | - |
| 1778186298 | 12.78° C | 47% | 1008.6 hPa | 0 mm | - | 147 W/m² | - |
| 1778185388 | 11.11° C | 52% | 1008.9 hPa | 0 mm | - | 138 W/m² | - |
| 1778184475 | 11.67° C | 50% | 1009 hPa | 0 mm | - | 235 W/m² | - |
| 1778184171 | 11.67° C | 52% | 1008.9 hPa | 0 mm | - | 169 W/m² | - |
| 1778183868 | 11.67° C | 48% | 1009.1 hPa | 0 mm | - | 173 W/m² | - |
| 1778183565 | 11.67° C | 50% | 1008.9 hPa | 0 mm | - | 214 W/m² | - |
| 1778183263 | 11.67° C | 50% | 1008.8 hPa | 0 mm | - | 186 W/m² | - |
| 1778182655 | 11.67° C | 51% | 1009.1 hPa | 0 mm | - | 196 W/m² | - |
| 1778182352 | 11.67° C | 53% | 1009.3 hPa | 0 mm | - | 223 W/m² | - |
| 1778182048 | 11.67° C | 56% | 1009.4 hPa | 0 mm | - | 200 W/m² | - |
| 1778181745 | 11.67° C | 50% | 1009.1 hPa | 0 mm | - | 109 W/m² | - |
| 1778181441 | 12.78° C | 51% | 1009.2 hPa | 0 mm | - | 151 W/m² | - |
| 1778180534 | 13.33° C | 47% | 1009.5 hPa | 0 mm | - | 309 W/m² | - |
| 1778180232 | 11.67° C | 53% | 1009.6 hPa | 0 mm | - | 809 W/m² | - |
| 1778179626 | 11.67° C | 52% | 1009.7 hPa | 0 mm | - | 252 W/m² | - |
| 1778178109 | 12.78° C | 50% | 1009.8 hPa | 0 mm | - | 273 W/m² | - |
| 1778177806 | 12.22° C | 50% | 1009.9 hPa | 0 mm | - | 814 W/m² | - |
| 1778176592 | 11.67° C | 50% | 1009.9 hPa | 0 mm | - | 453 W/m² | - |
| 1778175078 | 12.22° C | 49% | 1009.6 hPa | 0 mm | - | 822 W/m² | - |
| 1778174472 | 13.89° C | 48% | 1009.8 hPa | 0 mm | - | 278 W/m² | - |
| 1778173864 | 12.22° C | 50% | 1009.9 hPa | 0 mm | - | 230 W/m² | - |
| 1778173258 | 12.22° C | 51% | 1009.7 hPa | 0 mm | - | 183 W/m² | - |
* Rain latest hour (hover to see other rain measurements)
** Current wind speed in m/s (hover to see current wind gust speed)